sensor_id;sensor_type;location;lat;lon;timestamp;P1;durP1;ratioP1;P2;durP2;ratioP2
8610;SDS011;4343;53.648;10.098;2023-06-26T00:01:57;7.20;;;6.80;;
8610;SDS011;4343;53.648;10.098;2023-06-26T00:04:22;6.70;;;6.40;;
8610;SDS011;4343;53.648;10.098;2023-06-26T00:06:48;6.88;;;6.38;;
8610;SDS011;4343;53.648;10.098;2023-06-26T00:09:13;7.35;;;6.85;;
8610;SDS011;4343;53.648;10.098;2023-06-26T00:11:39;7.10;;;6.70;;
8610;SDS011;4343;53.648;10.098;2023-06-26T00:14:04;7.38;;;6.93;;
8610;SDS011;4343;53.648;10.098;2023-06-26T00:16:31;6.80;;;6.30;;
8610;SDS011;4343;53.648;10.098;2023-06-26T00:18:57;7.00;;;6.63;;
8610;SDS011;4343;53.648;10.098;2023-06-26T00:21:24;7.47;;;7.03;;
8610;SDS011;4343;53.648;10.098;2023-06-26T00:23:50;7.30;;;6.90;;
8610;SDS011;4343;53.648;10.098;2023-06-26T00:26:15;7.15;;;6.75;;
8610;SDS011;4343;53.648;10.098;2023-06-26T00:28:41;7.70;;;7.18;;
8610;SDS011;4343;53.648;10.098;2023-06-26T00:31:07;7.78;;;7.28;;
8610;SDS011;4343;53.648;10.098;2023-06-26T00:33:32;7.90;;;7.50;;
8610;SDS011;4343;53.648;10.098;2023-06-26T00:35:58;7.03;;;6.63;;
8610;SDS011;4343;53.648;10.098;2023-06-26T00:38:24;6.93;;;6.60;;
8610;SDS011;4343;53.648;10.098;2023-06-26T00:40:49;7.82;;;7.13;;
8610;SDS011;4343;53.648;10.098;2023-06-26T00:43:15;7.40;;;6.95;;
8610;SDS011;4343;53.648;10.098;2023-06-26T00:45:41;7.72;;;7.22;;
8610;SDS011;4343;53.648;10.098;2023-06-26T00:48:06;7.28;;;6.88;;
8610;SDS011;4343;53.648;10.098;2023-06-26T00:50:32;7.30;;;6.90;;
8610;SDS011;4343;53.648;10.098;2023-06-26T00:52:58;6.85;;;6.50;;
8610;SDS011;4343;53.648;10.098;2023-06-26T00:55:26;7.43;;;7.03;;
8610;SDS011;4343;53.648;10.098;2023-06-26T00:57:52;7.32;;;6.93;;
8610;SDS011;4343;53.648;10.098;2023-06-26T01:00:18;8.13;;;7.63;;
8610;SDS011;4343;53.648;10.098;2023-06-26T01:02:44;7.03;;;6.63;;
8610;SDS011;4343;53.648;10.098;2023-06-26T01:05:10;7.53;;;7.07;;
8610;SDS011;4343;53.648;10.098;2023-06-26T01:07:37;7.25;;;6.85;;
8610;SDS011;4343;53.648;10.098;2023-06-26T01:10:04;7.28;;;6.88;;
8610;SDS011;4343;53.648;10.098;2023-06-26T01:12:31;7.45;;;6.88;;
8610;SDS011;4343;53.648;10.098;2023-06-26T01:14:58;7.30;;;6.85;;
8610;SDS011;4343;53.648;10.098;2023-06-26T01:17:25;7.55;;;7.05;;
8610;SDS011;4343;53.648;10.098;2023-06-26T01:19:57;7.38;;;7.00;;
8610;SDS011;4343;53.648;10.098;2023-06-26T01:22:27;7.68;;;7.28;;
8610;SDS011;4343;53.648;10.098;2023-06-26T01:27:48;7.78;;;7.28;;
8610;SDS011;4343;53.648;10.098;2023-06-26T01:30:17;7.85;;;7.35;;
8610;SDS011;4343;53.648;10.098;2023-06-26T01:32:45;7.22;;;6.82;;
8610;SDS011;4343;53.648;10.098;2023-06-26T01:35:11;8.10;;;7.60;;
8610;SDS011;4343;53.648;10.098;2023-06-26T01:37:37;7.38;;;6.97;;
8610;SDS011;4343;53.648;10.098;2023-06-26T01:40:03;7.88;;;7.38;;
8610;SDS011;4343;53.648;10.098;2023-06-26T01:42:32;7.43;;;6.95;;
8610;SDS011;4343;53.648;10.098;2023-06-26T01:44:59;8.00;;;7.40;;
8610;SDS011;4343;53.648;10.098;2023-06-26T01:47:30;7.80;;;7.30;;
8610;SDS011;4343;53.648;10.098;2023-06-26T01:50:11;8.10;;;7.63;;
8610;SDS011;4343;53.648;10.098;2023-06-26T01:52:41;7.43;;;6.93;;
8610;SDS011;4343;53.648;10.098;2023-06-26T01:55:24;7.88;;;7.38;;
8610;SDS011;4343;53.648;10.098;2023-06-26T01:58:18;7.47;;;7.07;;
8610;SDS011;4343;53.648;10.098;2023-06-26T02:00:46;8.13;;;7.70;;
8610;SDS011;4343;53.648;10.098;2023-06-26T02:03:12;8.35;;;7.85;;
8610;SDS011;4343;53.648;10.098;2023-06-26T02:05:38;7.35;;;6.85;;
8610;SDS011;4343;53.648;10.098;2023-06-26T02:08:04;7.60;;;7.10;;
8610;SDS011;4343;53.648;10.098;2023-06-26T02:10:30;7.60;;;7.10;;
8610;SDS011;4343;53.648;10.098;2023-06-26T02:12:56;7.90;;;7.40;;
8610;SDS011;4343;53.648;10.098;2023-06-26T02:15:21;7.53;;;7.13;;
8610;SDS011;4343;53.648;10.098;2023-06-26T02:17:47;7.75;;;7.35;;
8610;SDS011;4343;53.648;10.098;2023-06-26T02:20:13;8.02;;;7.40;;
8610;SDS011;4343;53.648;10.098;2023-06-26T02:22:40;7.25;;;6.85;;
8610;SDS011;4343;53.648;10.098;2023-06-26T02:25:07;7.88;;;7.30;;
8610;SDS011;4343;53.648;10.098;2023-06-26T02:27:33;7.60;;;7.10;;
8610;SDS011;4343;53.648;10.098;2023-06-26T02:29:58;8.13;;;7.57;;
8610;SDS011;4343;53.648;10.098;2023-06-26T02:32:24;7.60;;;7.10;;
8610;SDS011;4343;53.648;10.098;2023-06-26T02:34:49;7.40;;;7.00;;
8610;SDS011;4343;53.648;10.098;2023-06-26T02:37:16;7.22;;;6.82;;
8610;SDS011;4343;53.648;10.098;2023-06-26T02:39:42;7.30;;;6.80;;
8610;SDS011;4343;53.648;10.098;2023-06-26T02:42:08;7.45;;;6.97;;
8610;SDS011;4343;53.648;10.098;2023-06-26T02:44:33;7.57;;;7.18;;
8610;SDS011;4343;53.648;10.098;2023-06-26T02:46:59;7.28;;;6.88;;
8610;SDS011;4343;53.648;10.098;2023-06-26T02:49:24;7.63;;;7.22;;
8610;SDS011;4343;53.648;10.098;2023-06-26T02:51:50;7.78;;;7.18;;
8610;SDS011;4343;53.648;10.098;2023-06-26T02:54:15;7.03;;;6.60;;
8610;SDS011;4343;53.648;10.098;2023-06-26T02:56:41;7.63;;;7.07;;
8610;SDS011;4343;53.648;10.098;2023-06-26T02:59:07;8.05;;;7.57;;
8610;SDS011;4343;53.648;10.098;2023-06-26T03:01:33;7.60;;;7.00;;
8610;SDS011;4343;53.648;10.098;2023-06-26T03:03:58;7.30;;;6.90;;
8610;SDS011;4343;53.648;10.098;2023-06-26T03:06:25;7.00;;;6.70;;
8610;SDS011;4343;53.648;10.098;2023-06-26T03:08:52;7.60;;;6.95;;
8610;SDS011;4343;53.648;10.098;2023-06-26T03:11:18;7.60;;;6.93;;
8610;SDS011;4343;53.648;10.098;2023-06-26T03:13:43;7.30;;;6.80;;
8610;SDS011;4343;53.648;10.098;2023-06-26T03:16:09;7.10;;;6.60;;
8610;SDS011;4343;53.648;10.098;2023-06-26T03:18:34;7.00;;;6.53;;
8610;SDS011;4343;53.648;10.098;2023-06-26T03:21:00;8.10;;;6.78;;
8610;SDS011;4343;53.648;10.098;2023-06-26T03:23:25;6.88;;;6.47;;
8610;SDS011;4343;53.648;10.098;2023-06-26T03:25:51;7.28;;;6.70;;
8610;SDS011;4343;53.648;10.098;2023-06-26T03:28:18;7.18;;;6.63;;
8610;SDS011;4343;53.648;10.098;2023-06-26T03:30:43;7.25;;;6.75;;
8610;SDS011;4343;53.648;10.098;2023-06-26T03:33:09;7.57;;;7.00;;
8610;SDS011;4343;53.648;10.098;2023-06-26T03:35:35;7.03;;;6.60;;
8610;SDS011;4343;53.648;10.098;2023-06-26T03:38:00;6.57;;;6.18;;
8610;SDS011;4343;53.648;10.098;2023-06-26T03:40:26;7.63;;;7.03;;
8610;SDS011;4343;53.648;10.098;2023-06-26T03:42:52;7.38;;;6.93;;
8610;SDS011;4343;53.648;10.098;2023-06-26T03:45:17;7.03;;;6.65;;
8610;SDS011;4343;53.648;10.098;2023-06-26T03:47:44;7.18;;;6.72;;
8610;SDS011;4343;53.648;10.098;2023-06-26T03:50:12;7.03;;;6.63;;
8610;SDS011;4343;53.648;10.098;2023-06-26T03:52:37;7.13;;;6.72;;
8610;SDS011;4343;53.648;10.098;2023-06-26T03:55:03;6.22;;;5.82;;
8610;SDS011;4343;53.648;10.098;2023-06-26T03:57:29;7.03;;;6.63;;
8610;SDS011;4343;53.648;10.098;2023-06-26T03:59:54;7.95;;;7.28;;
8610;SDS011;4343;53.648;10.098;2023-06-26T04:02:20;6.88;;;6.47;;
8610;SDS011;4343;53.648;10.098;2023-06-26T04:04:45;6.70;;;6.40;;
8610;SDS011;4343;53.648;10.098;2023-06-26T04:07:11;6.50;;;6.00;;
8610;SDS011;4343;53.648;10.098;2023-06-26T04:09:36;6.68;;;6.28;;
8610;SDS011;4343;53.648;10.098;2023-06-26T04:12:02;6.80;;;6.30;;
8610;SDS011;4343;53.648;10.098;2023-06-26T04:14:28;6.88;;;6.45;;
8610;SDS011;4343;53.648;10.098;2023-06-26T04:16:54;6.97;;;6.30;;
8610;SDS011;4343;53.648;10.098;2023-06-26T04:19:19;7.07;;;6.68;;
8610;SDS011;4343;53.648;10.098;2023-06-26T04:21:45;6.60;;;6.30;;
8610;SDS011;4343;53.648;10.098;2023-06-26T04:24:10;7.82;;;6.88;;
8610;SDS011;4343;53.648;10.098;2023-06-26T04:26:36;6.75;;;6.35;;
8610;SDS011;4343;53.648;10.098;2023-06-26T04:29:02;6.75;;;6.28;;
8610;SDS011;4343;53.648;10.098;2023-06-26T04:31:28;6.90;;;6.38;;
8610;SDS011;4343;53.648;10.098;2023-06-26T04:33:54;6.60;;;6.20;;
8610;SDS011;4343;53.648;10.098;2023-06-26T04:36:20;6.53;;;6.13;;
8610;SDS011;4343;53.648;10.098;2023-06-26T04:38:46;6.60;;;6.20;;
8610;SDS011;4343;53.648;10.098;2023-06-26T04:41:13;6.88;;;6.47;;
8610;SDS011;4343;53.648;10.098;2023-06-26T04:43:39;7.00;;;6.50;;
8610;SDS011;4343;53.648;10.098;2023-06-26T04:46:04;6.47;;;6.18;;
8610;SDS011;4343;53.648;10.098;2023-06-26T04:48:30;6.95;;;6.45;;
8610;SDS011;4343;53.648;10.098;2023-06-26T04:50:56;7.10;;;6.57;;
8610;SDS011;4343;53.648;10.098;2023-06-26T04:53:24;6.47;;;5.90;;
8610;SDS011;4343;53.648;10.098;2023-06-26T04:55:50;6.80;;;6.30;;
8610;SDS011;4343;53.648;10.098;2023-06-26T04:58:17;6.55;;;6.25;;
8610;SDS011;4343;53.648;10.098;2023-06-26T05:00:42;7.00;;;6.32;;
8610;SDS011;4343;53.648;10.098;2023-06-26T05:03:09;6.57;;;6.18;;
8610;SDS011;4343;53.648;10.098;2023-06-26T05:05:35;6.95;;;6.47;;
8610;SDS011;4343;53.648;10.098;2023-06-26T05:08:06;6.40;;;5.88;;
8610;SDS011;4343;53.648;10.098;2023-06-26T05:10:39;6.65;;;6.30;;
8610;SDS011;4343;53.648;10.098;2023-06-26T05:13:04;6.57;;;6.18;;
8610;SDS011;4343;53.648;10.098;2023-06-26T05:15:30;6.28;;;5.95;;
8610;SDS011;4343;53.648;10.098;2023-06-26T05:17:55;6.43;;;5.93;;
8610;SDS011;4343;53.648;10.098;2023-06-26T05:20:21;6.68;;;6.28;;
8610;SDS011;4343;53.648;10.098;2023-06-26T05:22:46;6.63;;;6.22;;
8610;SDS011;4343;53.648;10.098;2023-06-26T05:25:12;6.53;;;6.07;;
8610;SDS011;4343;53.648;10.098;2023-06-26T05:27:39;6.50;;;5.90;;
8610;SDS011;4343;53.648;10.098;2023-06-26T05:30:06;6.55;;;6.07;;
8610;SDS011;4343;53.648;10.098;2023-06-26T05:32:34;6.10;;;5.60;;
8610;SDS011;4343;53.648;10.098;2023-06-26T05:35:01;6.57;;;6.22;;
8610;SDS011;4343;53.648;10.098;2023-06-26T05:37:29;6.63;;;6.18;;
8610;SDS011;4343;53.648;10.098;2023-06-26T05:39:55;6.57;;;6.10;;
8610;SDS011;4343;53.648;10.098;2023-06-26T05:42:21;5.95;;;5.65;;
8610;SDS011;4343;53.648;10.098;2023-06-26T05:44:47;5.88;;;5.53;;
8610;SDS011;4343;53.648;10.098;2023-06-26T05:47:13;6.07;;;5.70;;
8610;SDS011;4343;53.648;10.098;2023-06-26T05:49:38;5.90;;;5.60;;
8610;SDS011;4343;53.648;10.098;2023-06-26T05:52:04;6.20;;;5.80;;
8610;SDS011;4343;53.648;10.098;2023-06-26T05:54:30;5.55;;;5.35;;
8610;SDS011;4343;53.648;10.098;2023-06-26T05:56:57;5.95;;;5.45;;
8610;SDS011;4343;53.648;10.098;2023-06-26T05:59:26;6.30;;;5.80;;
8610;SDS011;4343;53.648;10.098;2023-06-26T06:01:52;5.97;;;5.50;;
8610;SDS011;4343;53.648;10.098;2023-06-26T06:04:18;6.03;;;5.53;;
8610;SDS011;4343;53.648;10.098;2023-06-26T06:06:43;5.28;;;4.97;;
8610;SDS011;4343;53.648;10.098;2023-06-26T06:09:09;5.22;;;5.03;;
8610;SDS011;4343;53.648;10.098;2023-06-26T06:11:34;5.38;;;5.10;;
8610;SDS011;4343;53.648;10.098;2023-06-26T06:14:00;6.07;;;5.40;;
8610;SDS011;4343;53.648;10.098;2023-06-26T06:16:26;5.50;;;5.20;;
8610;SDS011;4343;53.648;10.098;2023-06-26T06:18:53;5.72;;;5.43;;
8610;SDS011;4343;53.648;10.098;2023-06-26T06:21:19;5.50;;;5.20;;
8610;SDS011;4343;53.648;10.098;2023-06-26T06:23:44;5.28;;;5.07;;
8610;SDS011;4343;53.648;10.098;2023-06-26T06:26:10;5.38;;;5.07;;
8610;SDS011;4343;53.648;10.098;2023-06-26T06:28:36;5.35;;;4.88;;
8610;SDS011;4343;53.648;10.098;2023-06-26T06:31:03;5.40;;;5.10;;
8610;SDS011;4343;53.648;10.098;2023-06-26T06:33:28;5.88;;;5.45;;
8610;SDS011;4343;53.648;10.098;2023-06-26T06:35:54;6.35;;;5.95;;
8610;SDS011;4343;53.648;10.098;2023-06-26T06:38:19;5.30;;;5.00;;
8610;SDS011;4343;53.648;10.098;2023-06-26T06:40:45;5.43;;;5.15;;
8610;SDS011;4343;53.648;10.098;2023-06-26T06:43:10;5.28;;;5.07;;
8610;SDS011;4343;53.648;10.098;2023-06-26T06:45:36;5.05;;;4.85;;
8610;SDS011;4343;53.648;10.098;2023-06-26T06:48:02;4.80;;;4.60;;
8610;SDS011;4343;53.648;10.098;2023-06-26T06:50:29;4.97;;;4.78;;
8610;SDS011;4343;53.648;10.098;2023-06-26T06:52:54;5.88;;;4.45;;
8610;SDS011;4343;53.648;10.098;2023-06-26T06:55:20;5.22;;;4.82;;
8610;SDS011;4343;53.648;10.098;2023-06-26T06:57:45;5.65;;;5.20;;
8610;SDS011;4343;53.648;10.098;2023-06-26T07:00:11;5.20;;;4.90;;
8610;SDS011;4343;53.648;10.098;2023-06-26T07:02:40;5.28;;;5.00;;
8610;SDS011;4343;53.648;10.098;2023-06-26T07:05:07;9.25;;;5.22;;
8610;SDS011;4343;53.648;10.098;2023-06-26T07:07:34;6.53;;;5.20;;
8610;SDS011;4343;53.648;10.098;2023-06-26T07:10:03;5.22;;;4.93;;
8610;SDS011;4343;53.648;10.098;2023-06-26T07:12:30;5.30;;;5.00;;
8610;SDS011;4343;53.648;10.098;2023-06-26T07:14:56;6.13;;;5.45;;
8610;SDS011;4343;53.648;10.098;2023-06-26T07:17:22;5.53;;;5.07;;
8610;SDS011;4343;53.648;10.098;2023-06-26T07:19:48;5.30;;;5.00;;
8610;SDS011;4343;53.648;10.098;2023-06-26T07:22:14;5.70;;;5.30;;
8610;SDS011;4343;53.648;10.098;2023-06-26T07:24:39;5.50;;;5.13;;
8610;SDS011;4343;53.648;10.098;2023-06-26T07:27:05;5.70;;;5.30;;
8610;SDS011;4343;53.648;10.098;2023-06-26T07:29:31;6.00;;;5.22;;
8610;SDS011;4343;53.648;10.098;2023-06-26T07:31:56;5.50;;;5.30;;
8610;SDS011;4343;53.648;10.098;2023-06-26T07:34:22;6.03;;;5.18;;
8610;SDS011;4343;53.648;10.098;2023-06-26T07:36:47;5.70;;;5.22;;
8610;SDS011;4343;53.648;10.098;2023-06-26T07:39:13;66.43;;;7.75;;
8610;SDS011;4343;53.648;10.098;2023-06-26T07:41:38;6.40;;;5.85;;
8610;SDS011;4343;53.648;10.098;2023-06-26T07:44:04;6.00;;;5.45;;
8610;SDS011;4343;53.648;10.098;2023-06-26T07:46:29;6.20;;;5.75;;
8610;SDS011;4343;53.648;10.098;2023-06-26T07:48:55;5.57;;;5.28;;
8610;SDS011;4343;53.648;10.098;2023-06-26T07:51:20;6.25;;;5.57;;
8610;SDS011;4343;53.648;10.098;2023-06-26T07:53:46;6.38;;;5.82;;
8610;SDS011;4343;53.648;10.098;2023-06-26T07:56:11;6.25;;;5.25;;
8610;SDS011;4343;53.648;10.098;2023-06-26T07:58:37;6.10;;;5.68;;
8610;SDS011;4343;53.648;10.098;2023-06-26T08:01:03;5.65;;;5.32;;
8610;SDS011;4343;53.648;10.098;2023-06-26T08:03:28;6.43;;;5.90;;
8610;SDS011;4343;53.648;10.098;2023-06-26T08:05:54;6.57;;;5.65;;
8610;SDS011;4343;53.648;10.098;2023-06-26T08:08:19;6.18;;;5.78;;
8610;SDS011;4343;53.648;10.098;2023-06-26T08:10:45;6.20;;;5.85;;
8610;SDS011;4343;53.648;10.098;2023-06-26T08:13:10;5.93;;;5.57;;
8610;SDS011;4343;53.648;10.098;2023-06-26T08:15:36;5.55;;;5.25;;
8610;SDS011;4343;53.648;10.098;2023-06-26T08:18:01;6.35;;;5.78;;
8610;SDS011;4343;53.648;10.098;2023-06-26T08:20:27;5.90;;;5.43;;
8610;SDS011;4343;53.648;10.098;2023-06-26T08:22:53;6.47;;;6.07;;
8610;SDS011;4343;53.648;10.098;2023-06-26T08:25:19;5.93;;;5.63;;
8610;SDS011;4343;53.648;10.098;2023-06-26T08:27:45;5.80;;;5.43;;
8610;SDS011;4343;53.648;10.098;2023-06-26T08:30:11;6.95;;;6.22;;
8610;SDS011;4343;53.648;10.098;2023-06-26T08:32:36;6.30;;;5.70;;
8610;SDS011;4343;53.648;10.098;2023-06-26T08:35:02;5.78;;;5.40;;
8610;SDS011;4343;53.648;10.098;2023-06-26T08:37:29;5.63;;;5.38;;
8610;SDS011;4343;53.648;10.098;2023-06-26T08:39:57;6.20;;;5.63;;
8610;SDS011;4343;53.648;10.098;2023-06-26T08:42:24;6.57;;;6.07;;
8610;SDS011;4343;53.648;10.098;2023-06-26T08:44:49;5.57;;;5.28;;
8610;SDS011;4343;53.648;10.098;2023-06-26T08:47:15;6.13;;;5.80;;
8610;SDS011;4343;53.648;10.098;2023-06-26T08:49:51;5.45;;;5.05;;
8610;SDS011;4343;53.648;10.098;2023-06-26T08:52:28;6.18;;;5.78;;
8610;SDS011;4343;53.648;10.098;2023-06-26T08:54:59;6.47;;;5.90;;
8610;SDS011;4343;53.648;10.098;2023-06-26T08:57:26;6.88;;;6.25;;
8610;SDS011;4343;53.648;10.098;2023-06-26T08:59:53;6.18;;;5.88;;
8610;SDS011;4343;53.648;10.098;2023-06-26T09:02:19;10.30;;;6.35;;
8610;SDS011;4343;53.648;10.098;2023-06-26T09:04:46;8.20;;;6.22;;
8610;SDS011;4343;53.648;10.098;2023-06-26T09:07:13;6.88;;;6.28;;
8610;SDS011;4343;53.648;10.098;2023-06-26T09:09:39;6.95;;;6.28;;
8610;SDS011;4343;53.648;10.098;2023-06-26T09:12:05;10.13;;;5.82;;
8610;SDS011;4343;53.648;10.098;2023-06-26T09:14:31;7.00;;;6.28;;
8610;SDS011;4343;53.648;10.098;2023-06-26T09:16:57;6.65;;;6.25;;
8610;SDS011;4343;53.648;10.098;2023-06-26T09:19:22;7.05;;;6.57;;
8610;SDS011;4343;53.648;10.098;2023-06-26T09:21:49;6.85;;;6.35;;
8610;SDS011;4343;53.648;10.098;2023-06-26T09:24:16;6.75;;;6.35;;
8610;SDS011;4343;53.648;10.098;2023-06-26T09:26:42;6.75;;;6.35;;
8610;SDS011;4343;53.648;10.098;2023-06-26T09:29:08;7.25;;;6.85;;
8610;SDS011;4343;53.648;10.098;2023-06-26T09:31:38;6.80;;;6.30;;
8610;SDS011;4343;53.648;10.098;2023-06-26T09:34:04;8.90;;;6.82;;
8610;SDS011;4343;53.648;10.098;2023-06-26T09:36:30;8.13;;;7.43;;
8610;SDS011;4343;53.648;10.098;2023-06-26T09:39:04;7.70;;;7.20;;
8610;SDS011;4343;53.648;10.098;2023-06-26T09:41:35;9.02;;;6.80;;
8610;SDS011;4343;53.648;10.098;2023-06-26T09:44:02;8.57;;;7.57;;
8610;SDS011;4343;53.648;10.098;2023-06-26T09:46:29;7.35;;;6.75;;
8610;SDS011;4343;53.648;10.098;2023-06-26T09:49:09;7.97;;;7.10;;
8610;SDS011;4343;53.648;10.098;2023-06-26T09:51:36;7.63;;;6.95;;
8610;SDS011;4343;53.648;10.098;2023-06-26T09:54:04;7.50;;;6.50;;
8610;SDS011;4343;53.648;10.098;2023-06-26T09:56:30;8.07;;;6.55;;
8610;SDS011;4343;53.648;10.098;2023-06-26T09:58:58;7.03;;;6.40;;
8610;SDS011;4343;53.648;10.098;2023-06-26T10:01:26;9.57;;;6.53;;
8610;SDS011;4343;53.648;10.098;2023-06-26T10:03:56;7.95;;;7.20;;
8610;SDS011;4343;53.648;10.098;2023-06-26T10:06:24;7.32;;;6.80;;
8610;SDS011;4343;53.648;10.098;2023-06-26T10:09:02;7.00;;;6.40;;
8610;SDS011;4343;53.648;10.098;2023-06-26T10:11:37;6.65;;;6.05;;
8610;SDS011;4343;53.648;10.098;2023-06-26T10:14:08;6.40;;;5.80;;
8610;SDS011;4343;53.648;10.098;2023-06-26T10:16:36;7.40;;;6.82;;
8610;SDS011;4343;53.648;10.098;2023-06-26T10:19:04;6.07;;;5.78;;
8610;SDS011;4343;53.648;10.098;2023-06-26T10:21:32;7.22;;;6.72;;
8610;SDS011;4343;53.648;10.098;2023-06-26T10:24:03;7.22;;;5.85;;
8610;SDS011;4343;53.648;10.098;2023-06-26T10:26:31;9.23;;;6.72;;
8610;SDS011;4343;53.648;10.098;2023-06-26T10:29:00;7.18;;;6.68;;
8610;SDS011;4343;53.648;10.098;2023-06-26T10:31:27;7.32;;;6.72;;
8610;SDS011;4343;53.648;10.098;2023-06-26T10:33:54;8.05;;;7.43;;
8610;SDS011;4343;53.648;10.098;2023-06-26T10:36:21;9.77;;;7.35;;
8610;SDS011;4343;53.648;10.098;2023-06-26T10:38:55;9.05;;;7.80;;
8610;SDS011;4343;53.648;10.098;2023-06-26T10:41:22;7.75;;;7.13;;
8610;SDS011;4343;53.648;10.098;2023-06-26T10:43:49;8.40;;;7.47;;
8610;SDS011;4343;53.648;10.098;2023-06-26T10:46:24;7.18;;;6.63;;
8610;SDS011;4343;53.648;10.098;2023-06-26T10:48:59;6.25;;;5.80;;
8610;SDS011;4343;53.648;10.098;2023-06-26T10:51:26;6.68;;;6.18;;
8610;SDS011;4343;53.648;10.098;2023-06-26T10:53:55;6.88;;;6.38;;
8610;SDS011;4343;53.648;10.098;2023-06-26T10:59:27;6.07;;;4.78;;
8610;SDS011;4343;53.648;10.098;2023-06-26T11:02:01;5.40;;;5.00;;
8610;SDS011;4343;53.648;10.098;2023-06-26T11:07:16;5.20;;;4.78;;
8610;SDS011;4343;53.648;10.098;2023-06-26T11:09:53;5.63;;;5.13;;
8610;SDS011;4343;53.648;10.098;2023-06-26T11:12:35;5.32;;;5.03;;
8610;SDS011;4343;53.648;10.098;2023-06-26T11:15:03;6.07;;;5.57;;
8610;SDS011;4343;53.648;10.098;2023-06-26T11:17:32;5.40;;;5.07;;
8610;SDS011;4343;53.648;10.098;2023-06-26T11:19:59;5.43;;;5.00;;
8610;SDS011;4343;53.648;10.098;2023-06-26T11:22:25;5.93;;;5.43;;
8610;SDS011;4343;53.648;10.098;2023-06-26T11:24:53;5.68;;;5.20;;
8610;SDS011;4343;53.648;10.098;2023-06-26T11:27:19;6.63;;;5.97;;
8610;SDS011;4343;53.648;10.098;2023-06-26T11:29:48;6.43;;;5.75;;
8610;SDS011;4343;53.648;10.098;2023-06-26T11:32:14;5.18;;;4.78;;
8610;SDS011;4343;53.648;10.098;2023-06-26T11:34:40;6.00;;;4.90;;
8610;SDS011;4343;53.648;10.098;2023-06-26T11:37:08;5.97;;;5.38;;
8610;SDS011;4343;53.648;10.098;2023-06-26T11:39:33;5.43;;;4.85;;
8610;SDS011;4343;53.648;10.098;2023-06-26T11:41:59;4.95;;;4.38;;
8610;SDS011;4343;53.648;10.098;2023-06-26T11:44:28;9.57;;;4.93;;
8610;SDS011;4343;53.648;10.098;2023-06-26T11:46:56;5.00;;;4.50;;
8610;SDS011;4343;53.648;10.098;2023-06-26T11:49:22;5.40;;;4.93;;
8610;SDS011;4343;53.648;10.098;2023-06-26T11:51:48;6.90;;;4.80;;
8610;SDS011;4343;53.648;10.098;2023-06-26T11:54:14;5.80;;;4.35;;
8610;SDS011;4343;53.648;10.098;2023-06-26T11:56:39;7.18;;;4.18;;
8610;SDS011;4343;53.648;10.098;2023-06-26T11:59:06;7.22;;;3.85;;
8610;SDS011;4343;53.648;10.098;2023-06-26T12:01:43;4.78;;;3.72;;
8610;SDS011;4343;53.648;10.098;2023-06-26T12:04:10;6.30;;;3.28;;
8610;SDS011;4343;53.648;10.098;2023-06-26T12:06:38;6.63;;;3.10;;
8610;SDS011;4343;53.648;10.098;2023-06-26T12:09:06;5.68;;;3.05;;
8610;SDS011;4343;53.648;10.098;2023-06-26T12:11:35;6.28;;;2.80;;
8610;SDS011;4343;53.648;10.098;2023-06-26T12:14:01;3.38;;;2.60;;
8610;SDS011;4343;53.648;10.098;2023-06-26T12:16:28;7.10;;;2.85;;
8610;SDS011;4343;53.648;10.098;2023-06-26T12:19:02;7.05;;;3.20;;
8610;SDS011;4343;53.648;10.098;2023-06-26T12:24:10;5.85;;;3.25;;
8610;SDS011;4343;53.648;10.098;2023-06-26T12:26:41;6.45;;;2.78;;
8610;SDS011;4343;53.648;10.098;2023-06-26T12:29:11;4.82;;;2.60;;
8610;SDS011;4343;53.648;10.098;2023-06-26T12:31:42;4.68;;;2.72;;
8610;SDS011;4343;53.648;10.098;2023-06-26T12:34:13;6.85;;;2.92;;
8610;SDS011;4343;53.648;10.098;2023-06-26T12:36:42;4.05;;;2.80;;
8610;SDS011;4343;53.648;10.098;2023-06-26T12:39:16;4.63;;;2.65;;
8610;SDS011;4343;53.648;10.098;2023-06-26T12:41:51;4.90;;;3.05;;
8610;SDS011;4343;53.648;10.098;2023-06-26T12:44:23;3.75;;;2.95;;
8610;SDS011;4343;53.648;10.098;2023-06-26T12:46:54;4.90;;;2.63;;
8610;SDS011;4343;53.648;10.098;2023-06-26T12:49:29;7.13;;;2.92;;
8610;SDS011;4343;53.648;10.098;2023-06-26T12:52:03;5.25;;;3.20;;
8610;SDS011;4343;53.648;10.098;2023-06-26T12:54:30;5.93;;;2.60;;
8610;SDS011;4343;53.648;10.098;2023-06-26T12:56:56;4.07;;;3.15;;
8610;SDS011;4343;53.648;10.098;2023-06-26T12:59:22;4.03;;;2.70;;
8610;SDS011;4343;53.648;10.098;2023-06-26T13:01:48;9.52;;;3.38;;
8610;SDS011;4343;53.648;10.098;2023-06-26T13:04:14;5.00;;;2.75;;
8610;SDS011;4343;53.648;10.098;2023-06-26T13:06:40;11.27;;;3.05;;
8610;SDS011;4343;53.648;10.098;2023-06-26T13:09:05;4.15;;;2.55;;
8610;SDS011;4343;53.648;10.098;2023-06-26T13:11:32;3.88;;;2.97;;
8610;SDS011;4343;53.648;10.098;2023-06-26T13:13:58;7.72;;;2.83;;
8610;SDS011;4343;53.648;10.098;2023-06-26T13:16:24;4.10;;;2.58;;
8610;SDS011;4343;53.648;10.098;2023-06-26T13:18:50;6.13;;;2.67;;
8610;SDS011;4343;53.648;10.098;2023-06-26T13:21:16;6.75;;;2.45;;
8610;SDS011;4343;53.648;10.098;2023-06-26T13:23:43;3.28;;;2.13;;
8610;SDS011;4343;53.648;10.098;2023-06-26T13:26:09;5.78;;;3.08;;
8610;SDS011;4343;53.648;10.098;2023-06-26T13:28:35;4.82;;;2.58;;
8610;SDS011;4343;53.648;10.098;2023-06-26T13:31:01;4.53;;;2.65;;
8610;SDS011;4343;53.648;10.098;2023-06-26T13:33:27;4.30;;;2.53;;
8610;SDS011;4343;53.648;10.098;2023-06-26T13:35:53;3.75;;;2.58;;
8610;SDS011;4343;53.648;10.098;2023-06-26T13:38:20;4.78;;;2.40;;
8610;SDS011;4343;53.648;10.098;2023-06-26T13:40:49;5.93;;;2.70;;
8610;SDS011;4343;53.648;10.098;2023-06-26T13:43:18;4.13;;;2.42;;
8610;SDS011;4343;53.648;10.098;2023-06-26T13:45:45;2.78;;;1.77;;
8610;SDS011;4343;53.648;10.098;2023-06-26T13:48:10;3.45;;;2.38;;
8610;SDS011;4343;53.648;10.098;2023-06-26T13:50:36;7.10;;;2.30;;
8610;SDS011;4343;53.648;10.098;2023-06-26T13:53:01;5.75;;;2.45;;
8610;SDS011;4343;53.648;10.098;2023-06-26T13:55:27;8.70;;;2.60;;
8610;SDS011;4343;53.648;10.098;2023-06-26T13:57:53;5.80;;;2.10;;
8610;SDS011;4343;53.648;10.098;2023-06-26T14:00:18;2.70;;;2.13;;
8610;SDS011;4343;53.648;10.098;2023-06-26T14:02:46;2.95;;;1.90;;
8610;SDS011;4343;53.648;10.098;2023-06-26T14:05:12;1.75;;;1.65;;
8610;SDS011;4343;53.648;10.098;2023-06-26T14:07:37;2.13;;;2.03;;
8610;SDS011;4343;53.648;10.098;2023-06-26T14:10:03;2.05;;;1.92;;
8610;SDS011;4343;53.648;10.098;2023-06-26T14:12:31;3.08;;;1.92;;
8610;SDS011;4343;53.648;10.098;2023-06-26T14:15:00;2.17;;;2.00;;
8610;SDS011;4343;53.648;10.098;2023-06-26T14:17:25;1.92;;;1.80;;
8610;SDS011;4343;53.648;10.098;2023-06-26T14:19:51;2.60;;;1.65;;
8610;SDS011;4343;53.648;10.098;2023-06-26T14:22:17;2.75;;;1.70;;
8610;SDS011;4343;53.648;10.098;2023-06-26T14:24:43;5.53;;;2.33;;
8610;SDS011;4343;53.648;10.098;2023-06-26T14:27:09;4.78;;;1.80;;
8610;SDS011;4343;53.648;10.098;2023-06-26T14:29:38;1.80;;;1.65;;
8610;SDS011;4343;53.648;10.098;2023-06-26T14:32:03;4.50;;;1.73;;
8610;SDS011;4343;53.648;10.098;2023-06-26T14:34:29;5.38;;;1.95;;
8610;SDS011;4343;53.648;10.098;2023-06-26T14:36:55;2.88;;;1.63;;
8610;SDS011;4343;53.648;10.098;2023-06-26T14:39:21;4.15;;;2.22;;
8610;SDS011;4343;53.648;10.098;2023-06-26T14:41:46;2.97;;;2.35;;
8610;SDS011;4343;53.648;10.098;2023-06-26T14:44:15;2.08;;;1.85;;
8610;SDS011;4343;53.648;10.098;2023-06-26T14:46:40;4.28;;;1.80;;
8610;SDS011;4343;53.648;10.098;2023-06-26T14:49:06;2.83;;;2.05;;
8610;SDS011;4343;53.648;10.098;2023-06-26T14:51:32;1.67;;;1.58;;
8610;SDS011;4343;53.648;10.098;2023-06-26T14:53:57;2.20;;;2.08;;
8610;SDS011;4343;53.648;10.098;2023-06-26T14:56:23;2.13;;;1.98;;
8610;SDS011;4343;53.648;10.098;2023-06-26T14:58:49;3.22;;;1.80;;
8610;SDS011;4343;53.648;10.098;2023-06-26T15:01:17;2.70;;;1.63;;
8610;SDS011;4343;53.648;10.098;2023-06-26T15:03:48;2.00;;;1.75;;
8610;SDS011;4343;53.648;10.098;2023-06-26T15:06:14;3.03;;;1.85;;
8610;SDS011;4343;53.648;10.098;2023-06-26T15:08:40;2.85;;;1.65;;
8610;SDS011;4343;53.648;10.098;2023-06-26T15:11:05;4.32;;;1.98;;